Latest Weather Observations for Essendon Airport

IDV60901

Issued at 5:51 pm EDT Saturday 25 February 2017 (issued every 10 minutes, with the page automatically refreshed every 10 minutes)

About weather observations | Map of Melbourne area stations | Latest observations for Melbourne area | Other Formats
Station Details ID: 086038 Name: ESSENDON AIRPORT Lat: -37.73 Lon: 144.91 Height: 78.4 m
Data from the previous 72 hours. | See also: Recent months at Essendon Airport
Date/Time
EDT
Temp
°C
App
Temp
°C
Dew
Point
°C
Rel
Hum
%
Delta-T
°C
Wind Press
QNH
hPa
Press
MSL
hPa
Rain since
9am
mm
Dir  Spd
km/h
Gust
km/h
Spd
kts
Gust
kts
25/05:30pm 19.8 14.1 8.5 48 5.9 SSW 28 39 15 21 1021.6 1021.4 0.0
25/05:00pm 19.6 14.4 7.4 45 6.2 SSW 24 35 13 19 1021.6 1021.4 0.0
25/04:30pm 19.7 14.6 7.8 46 6.1 S 24 37 13 20 1021.7 1021.5 0.0
25/04:00pm 19.5 14.3 7.3 45 6.2 S 24 32 13 17 1021.8 1021.6 0.0
25/03:30pm 19.5 14.0 7.6 46 6.1 SSW 26 39 14 21 1022.0 1021.8 0.0
25/03:00pm 19.1 14.3 7.2 46 6.0 S 22 32 12 17 1022.1 1021.9 0.0
25/02:30pm 18.8 14.4 7.6 48 5.7 S 20 32 11 17 1022.4 1022.2 0.0
25/02:00pm 18.7 13.0 6.9 46 5.9 SSW 26 41 14 22 1023.2 1023.0 0.0
25/01:30pm 19.0 13.0 7.1 46 6.0 S 28 35 15 19 1023.3 1023.1 0.0
25/01:00pm 18.1 12.6 7.5 50 5.4 S 26 35 14 19 1023.5 1023.3 0.0
25/12:30pm 18.9 13.4 7.4 47 5.9 S 26 33 14 18 1023.8 1023.6 0.0
25/12:00pm 19.0 13.6 6.5 44 6.2 S 24 35 13 19 1024.2 1024.0 0.0
25/11:30am 17.3 11.1 6.2 48 5.5 S 28 37 15 20 1024.5 1024.3 0.0
25/11:00am 18.3 13.0 6.8 47 5.7 S 24 32 13 17 1024.8 1024.6 0.0
25/10:30am 16.6 10.9 6.7 52 4.9 SSE 26 37 14 20 1025.0 1024.8 0.0
25/10:00am 17.1 12.7 7.2 52 4.9 SE 20 30 11 16 1024.8 1024.6 0.0
25/09:30am 16.8 12.0 7.2 53 4.8 SE 22 28 12 15 1024.9 1024.7 0.0
25/09:00am 16.0 11.6 7.2 56 4.4 SE 20 28 11 15 1025.1 1024.9 0.2
25/08:30am 14.9 10.3 6.7 58 4.0 SE 20 26 11 14 1024.9 1024.7 0.2
25/08:00am 15.3 11.1 7.3 59 3.9 SE 19 26 10 14 1024.7 1024.5 0.2
25/07:30am 14.2 10.3 7.3 63 3.4 SE 17 24 9 13 1024.6 1024.4 0.2
25/07:00am 13.9 10.0 7.0 63 3.3 SE 17 24 9 13 1024.2 1024.0 0.2
25/06:30am 14.2 10.1 7.7 65 3.2 SE 19 26 10 14 1024.0 1023.8 0.2
25/06:00am 14.3 10.2 8.0 66 3.1 SE 19 28 10 15 1023.9 1023.7 0.2
25/05:30am 14.4 10.7 7.9 65 3.2 SE 17 22 9 12 1023.8 1023.6 0.2
25/05:00am 14.7 10.4 7.7 63 3.5 SSE 20 26 11 14 1023.8 1023.6 0.2
25/04:30am 14.8 10.2 8.3 65 3.3 SSE 22 32 12 17 1023.9 1023.7 0.2
25/04:00am 14.8 9.6 9.0 68 3.0 SSE 26 39 14 21 1024.0 1023.8 0.2
25/03:30am 14.9 10.4 10.1 73 2.5 SSE 24 33 13 18 1024.1 1023.9 0.2
25/03:00am 14.1 11.1 12.1 88 1.1 S 19 26 10 14 1024.2 1024.0 0.2
25/02:30am 15.4 12.8 10.6 73 2.5 S 15 20 8 11 1024.3 1024.1 0.0
25/02:00am 15.8 13.4 9.9 68 3.1 SE 13 20 7 11 1024.6 1024.4 0.0
25/01:30am 15.8 13.4 9.9 68 3.1 SSE 13 17 7 9 1024.7 1024.5 0.0
25/01:00am 15.9 12.3 10.0 68 3.1 SE 19 24 10 13 1024.7 1024.5 0.0
25/12:30am 16.0 12.9 10.3 69 3.0 SSE 17 24 9 13 1024.8 1024.6 0.0
25/12:00am 16.2 13.7 9.8 66 3.3 SSE 13 22 7 12 1024.9 1024.7 0.0
 
Date/Time
EDT
Temp
°C
App
Temp
°C
Dew
Point
°C
Rel
Hum
%
Delta-T
°C
Wind Press
QNH
hPa
Press
MSL
hPa
Rain since
9am
mm
Dir  Spd
km/h
Gust
km/h
Spd
kts
Gust
kts
24/11:30pm 16.3 12.9 9.0 62 3.8 SE 17 20 9 11 1025.1 1024.9 0.0
24/11:00pm 16.8 12.8 9.0 60 4.0 S 20 28 11 15 1025.1 1024.9 0.0
24/10:30pm 16.8 12.7 7.7 55 4.6 S 19 26 10 14 1025.3 1025.1 0.0
24/10:00pm 16.8 12.9 9.5 62 3.8 S 20 32 11 17 1025.5 1025.3 0.0
24/09:30pm 17.0 13.1 9.4 61 4.0 S 20 26 11 14 1025.5 1025.3 0.0
24/09:00pm 16.9 12.4 8.6 58 4.2 S 22 30 12 16 1025.2 1025.0 0.0
24/08:30pm 17.0 12.5 8.4 57 4.4 S 22 28 12 15 1025.0 1024.8 0.0
24/08:00pm 17.0 12.7 9.4 61 4.0 S 22 32 12 17 1024.9 1024.7 0.0
24/07:30pm 17.0 12.3 9.2 60 4.1 S 24 33 13 18 1024.8 1024.6 0.0
24/07:00pm 17.4 13.1 9.3 59 4.2 S 22 33 12 18 1024.6 1024.4 0.0
24/06:30pm 17.5 12.5 9.4 59 4.2 S 26 35 14 19 1024.5 1024.3 0.0
24/06:00pm 18.0 12.6 9.4 57 4.5 SSE 28 37 15 20 1024.6 1024.4 0.0
24/05:30pm 17.8 12.7 9.2 57 4.5 S 26 33 14 18 1024.7 1024.5 0.0
24/05:00pm 17.5 11.6 9.2 58 4.3 S 30 41 16 22 1024.6 1024.4 0.0
24/04:30pm 18.3 12.4 9.1 55 4.8 S 30 39 16 21 1024.5 1024.3 0.0
24/04:00pm 17.6 12.9 9.2 58 4.4 S 24 32 13 17 1024.7 1024.5 0.0
24/03:58pm 17.6 12.9 9.2 58 4.4 S 24 32 13 17 1024.7 1024.5 0.0
24/03:39pm 18.1 12.8 8.4 53 5.0 S 26 35 14 19 1024.7 1024.5 0.0
24/03:30pm 18.6 14.0 8.3 51 5.3 S 22 32 12 17 1024.8 1024.6 0.0
24/03:00pm 18.3 13.4 8.6 53 5.0 S 24 35 13 19 1025.0 1024.8 0.0
24/02:30pm 18.6 12.3 7.4 48 5.7 S 30 41 16 22 1025.1 1024.9 0.0
24/02:00pm 18.6 12.2 6.8 46 5.9 S 30 44 16 24 1025.1 1024.9 0.0
24/01:30pm 17.7 11.5 7.7 52 5.1 S 30 39 16 21 1025.1 1024.9 0.0
24/01:00pm 18.5 13.1 7.9 50 5.4 S 26 39 14 21 1025.0 1024.8 0.0
24/12:30pm 18.3 12.9 8.0 51 5.3 S 26 33 14 18 1025.0 1024.8 0.0
24/12:00pm 18.5 13.5 8.2 51 5.3 S 24 35 13 19 1025.1 1024.9 0.0
24/11:30am 17.9 12.9 8.2 53 5.0 SSW 24 33 13 18 1025.1 1024.9 0.0
24/11:00am 17.7 13.2 8.6 55 4.7 SSW 22 30 12 16 1025.1 1024.9 0.0
24/10:30am 17.4 13.2 9.6 60 4.1 SSW 22 30 12 16 1025.0 1024.8 0.0
24/10:00am 17.1 12.6 10.0 63 3.7 SSW 24 33 13 18 1024.8 1024.6 0.0
24/09:30am 16.8 12.7 10.2 65 3.5 SSW 22 28 12 15 1024.5 1024.3 0.0
24/09:00am 16.2 12.5 10.3 68 3.1 S 20 28 11 15 1024.3 1024.1 0.4
24/08:30am 16.0 12.6 11.2 73 2.6 SSW 20 26 11 14 1024.1 1023.9 0.4
24/08:00am 15.7 13.3 12.5 81 1.8 SSW 17 24 9 13 1023.7 1023.5 0.4
24/07:30am 15.4 13.2 13.4 88 1.1 SSW 17 22 9 12 1023.5 1023.3 0.4
24/07:00am 15.4 13.5 14.1 92 0.7 SW 17 20 9 11 1023.1 1022.9 0.4
24/06:57am 15.4 13.5 14.1 92 0.7 SW 17 19 9 10 1023.1 1022.9 0.4
24/06:30am 15.2 13.7 14.1 93 0.6 SW 15 20 8 11 1022.9 1022.7 0.4
24/06:19am 15.2 13.7 14.2 94 0.6 SW 15 19 8 10 1022.8 1022.6 0.4
24/06:00am 15.2 13.8 14.6 96 0.3 SSW 15 20 8 11 1022.7 1022.5 0.4
24/05:30am 15.2 12.9 14.6 96 0.3 SSW 20 26 11 14 1022.4 1022.2 0.4
24/05:19am 15.6 14.4 15.1 97 0.3 SSW 15 24 8 13 1022.2 1022.0 0.4
24/05:17am 15.6 14.8 15.1 97 0.3 SSW 13 22 7 12 1022.2 1022.0 0.4
24/05:00am 15.6 15.7 15.4 99 0.1 S 9 13 5 7 1022.1 1021.9 0.4
24/04:30am 15.5 14.8 15.3 99 0.1 S 13 22 7 12 1022.2 1022.0 0.4
24/04:07am 15.6 14.1 15.4 99 0.1 SSW 17 26 9 14 1022.3 1022.1 0.4
24/04:00am 15.7 15.0 15.5 99 0.1 SSW 13 17 7 9 1022.3 1022.1 0.4
24/03:53am 15.6 14.9 15.4 99 0.1 S 13 19 7 10 1022.3 1022.1 0.4
24/03:38am 15.6 14.1 15.4 99 0.1 SSW 17 20 9 11 1022.5 1022.3 0.2
24/03:30am 15.8 14.4 15.6 99 0.1 SSW 17 22 9 12 1022.5 1022.3 0.2
24/03:27am 15.8 14.4 15.6 99 0.1 SSW 17 22 9 12 1022.5 1022.3 0.2
24/03:15am 15.7 14.3 15.5 99 0.1 S 17 20 9 11 1022.5 1022.3 0.2
24/03:00am 15.7 13.2 15.2 97 0.3 S 22 30 12 16 1022.6 1022.4 0.0
24/02:53am 15.9 13.8 15.3 96 0.3 SSW 20 28 11 15 1022.6 1022.4 0.0
24/02:50am 16.0 14.1 15.2 95 0.5 SSW 19 28 10 15 1022.5 1022.3 0.0
24/02:30am 16.0 14.0 15.4 96 0.3 SSW 20 28 11 15 1022.4 1022.2 0.0
24/02:00am 16.4 14.6 15.4 94 0.6 SSW 19 26 10 14 1022.6 1022.4 0.0
24/01:35am 16.6 15.5 15.3 92 0.8 S 15 24 8 13 1022.7 1022.5 0.0
24/01:30am 16.6 15.5 15.3 92 0.8 SSE 15 22 8 12 1022.7 1022.5 0.0
24/01:11am 16.7 14.7 14.9 89 1.0 S 19 28 10 15 1022.9 1022.7 0.0
24/01:00am 16.7 15.1 14.9 89 1.0 S 17 24 9 13 1022.8 1022.6 0.0
24/12:30am 17.0 14.9 14.8 87 1.3 SSE 19 24 10 13 1022.8 1022.6 0.0
24/12:00am 17.6 15.4 14.3 81 1.9 SSE 19 24 10 13 1022.6 1022.4 0.0
 
Date/Time
EDT
Temp
°C
App
Temp
°C
Dew
Point
°C
Rel
Hum
%
Delta-T
°C
Wind Press
QNH
hPa
Press
MSL
hPa
Rain since
9am
mm
Dir  Spd
km/h
Gust
km/h
Spd
kts
Gust
kts
23/11:30pm 17.7 15.4 14.6 82 1.8 S 20 28 11 15 1022.6 1022.4 0.0
23/11:14pm 17.5 15.4 14.8 84 1.6 S 19 26 10 14 1022.6 1022.4 0.0
23/11:00pm 17.2 15.0 14.8 86 1.4 S 20 30 11 16 1022.6 1022.4 0.0
23/10:44pm 18.1 15.7 14.4 79 2.1 S 20 26 11 14 1022.4 1022.2 0.0
23/10:34pm 18.0 15.2 14.3 79 2.1 S 22 28 12 15 1022.4 1022.2 0.0
23/10:30pm 18.1 15.7 14.4 79 2.1 S 20 26 11 14 1022.4 1022.2 0.0
23/10:00pm 18.3 16.1 14.8 80 2.0 S 20 30 11 16 1022.4 1022.2 0.0
23/09:30pm 18.0 15.3 14.7 81 1.9 S 22 32 12 17 1022.0 1021.8 0.0
23/09:11pm 18.1 15.0 14.6 80 2.0 S 24 32 13 17 1021.7 1021.5 0.0
23/09:00pm 18.1 15.0 14.4 79 2.1 S 24 32 13 17 1021.4 1021.2 0.0
23/08:43pm 18.3 15.2 14.4 78 2.3 S 24 33 13 18 1021.1 1020.9 0.0
23/08:30pm 18.4 15.6 14.3 77 2.4 S 22 30 12 16 1020.9 1020.7 0.0
23/08:00pm 18.8 14.7 13.9 73 2.8 S 28 39 15 21 1020.3 1020.1 0.0
23/07:30pm 19.7 15.1 13.6 68 3.5 S 30 41 16 22 1019.7 1019.5 0.0
23/07:00pm 21.4 18.0 13.6 61 4.5 S 24 32 13 17 1019.2 1019.0 0.0
23/06:30pm 22.8 19.7 12.1 51 6.1 S 20 28 11 15 1018.8 1018.6 0.0
23/06:00pm 23.6 19.9 11.6 47 6.8 S 22 30 12 16 1018.4 1018.1 0.0
23/05:30pm 24.1 20.4 11.4 45 7.2 S 22 30 12 16 1018.1 1017.8 0.0
23/05:00pm 24.6 21.1 10.8 42 7.7 S 20 26 11 14 1017.9 1017.6 0.0
23/04:30pm 24.3 21.0 11.6 45 7.2 S 20 28 11 15 1017.7 1017.4 0.0
23/04:00pm 24.8 21.4 11.4 43 7.6 S 20 30 11 16 1017.8 1017.5 0.0
23/03:30pm 24.1 21.1 12.4 48 6.7 SSE 20 28 11 15 1017.9 1017.6 0.0
23/03:00pm 24.6 21.4 11.9 45 7.2 SSE 20 30 11 16 1018.0 1017.7 0.0
23/02:30pm 24.3 21.1 11.3 44 7.3 S 19 28 10 15 1017.9 1017.6 0.0
23/02:00pm 24.9 23.5 10.8 41 7.9 SSE 9 20 5 11 1017.9 1017.6 0.0
23/01:30pm 23.9 21.6 10.6 43 7.4 SSW 13 22 7 12 1018.1 1017.8 0.0
23/01:00pm 24.6 22.0 10.8 42 7.7 SW 15 35 8 19 1018.2 1017.9 0.0
23/12:30pm 23.5 20.3 11.2 46 6.9 SW 19 30 10 16 1018.3 1018.0 0.0
23/12:00pm 23.6 20.7 11.0 45 7.0 WSW 17 26 9 14 1018.4 1018.1 0.0
23/11:30am 22.9 19.6 11.0 47 6.6 W 19 32 10 17 1018.4 1018.1 0.0
23/11:00am 21.7 18.3 11.4 52 5.7 WSW 20 30 11 16 1018.3 1018.0 0.0
23/10:30am 22.3 19.1 12.0 52 5.8 WSW 20 28 11 15 1018.1 1017.8 0.0
23/10:00am 20.3 17.2 11.5 57 4.9 SW 19 28 10 15 1017.9 1017.6 0.0
23/09:30am 20.3 16.2 11.5 57 4.9 SW 24 32 13 17 1017.4 1017.1 0.0
23/09:00am 19.8 17.3 11.0 57 4.8 SW 15 20 8 11 1017.1 1016.8 0.0
23/08:30am 18.2 15.9 11.7 66 3.6 WSW 15 17 8 9 1016.7 1016.4 0.0
23/08:00am 16.9 15.5 12.2 74 2.6 NW 11 17 6 9 1016.2 1015.9 0.0
23/07:30am 15.8 14.4 12.2 79 2.0 NW 11 15 6 8 1015.5 1015.2 0.0
23/07:00am 15.4 14.4 12.3 82 1.7 NW 9 13 5 7 1014.8 1014.6 0.0
23/06:30am 14.4 13.7 12.1 86 1.2 NW 7 9 4 5 1014.3 1014.1 0.0
23/06:00am 14.8 14.1 11.9 83 1.6 NW 7 9 4 5 1013.9 1013.7 0.0
23/05:30am 16.1 15.3 13.0 82 1.7 NW 9 11 5 6 1013.6 1013.4 0.0
23/05:00am 16.6 16.0 13.5 82 1.7 NW 9 9 5 5 1013.3 1013.1 0.0
23/04:30am 16.1 15.4 13.2 83 1.6 NNW 9 11 5 6 1013.0 1012.8 0.0
23/04:00am 17.3 17.2 14.0 81 1.9 NNE 7 9 4 5 1013.0 1012.8 0.0
23/03:30am 17.0 16.9 13.9 82 1.8 ENE 7 9 4 5 1012.9 1012.7 0.0
23/03:00am 17.1 17.2 14.0 82 1.8 ENE 6 7 3 4 1012.9 1012.7 0.0
23/02:30am 16.6 16.2 13.1 80 2.0 E 7 9 4 5 1012.8 1012.6 0.0
23/02:00am 17.5 18.7 13.8 79 2.1 CALM 0 0 0 0 1012.7 1012.5 0.0
23/01:30am 17.7 18.1 13.6 77 2.3 ENE 4 7 2 4 1012.6 1012.4 0.0
23/01:00am 17.9 17.8 13.2 74 2.7 SW 6 7 3 4 1012.4 1012.2 0.0
23/12:30am 18.6 17.7 13.7 73 2.8 SSW 11 15 6 8 1012.0 1011.8 0.0
23/12:00am 19.0 17.2 13.4 70 3.2 SSW 15 20 8 11 1011.8 1011.6 0.0
 
Date/Time
EDT
Temp
°C
App
Temp
°C
Dew
Point
°C
Rel
Hum
%
Delta-T
°C
Wind Press
QNH
hPa
Press
MSL
hPa
Rain since
9am
mm
Dir  Spd
km/h
Gust
km/h
Spd
kts
Gust
kts
22/11:30pm 19.8 14.8 13.5 67 3.6 SSW 32 43 17 23 1011.3 1011.1 0.0
22/11:15pm 20.4 15.0 12.9 62 4.3 SSW 33 44 18 24 1010.8 1010.6 0.0
22/11:00pm 22.2 15.5 9.7 45 6.8 SW 35 56 19 30 1010.1 1009.9 0.0
22/10:58pm 23.1 17.0 8.4 39 7.8 WSW 30 54 16 29 1010.1 1009.9 0.0
22/10:55pm 24.6 19.3 4.9 28 9.9 W 22 41 12 22 1010.0 1009.8 0.0
22/10:30pm 26.7 22.2 -0.3 17 12.6 N 13 19 7 10 1008.8 1008.6 0.0
22/10:00pm 27.7 22.4 -0.4 16 13.2 NNE 17 22 9 12 1008.4 1008.2 0.0
22/09:30pm 27.5 22.6 -0.5 16 13.1 NNE 15 17 8 9 1008.3 1008.1 0.0
22/09:00pm 28.9 23.9 -1.2 14 14.0 N 15 20 8 11 1008.2 1008.0 0.0
22/08:30pm 29.7 24.6 -1.6 13 14.5 N 15 20 8 11 1008.0 1007.8 0.0
22/08:00pm 31.1 25.3 -1.6 12 15.4 N 19 24 10 13 1008.0 1007.8 0.0
22/07:30pm 32.4 24.7 -3.1 10 16.4 N 28 37 15 20 1007.6 1007.3 0.0
22/07:00pm 33.1 25.1 -2.6 10 16.8 N 30 44 16 24 1007.7 1007.5 0.0
22/06:30pm 33.6 25.8 -0.9 11 16.7 N 30 46 16 25 1008.2 1008.0 0.0
22/06:05pm 33.3 25.8 -1.1 11 16.5 N 28 46 15 25 1008.5 1008.3 0.0
22/06:00pm 33.3 26.2 -1.1 11 16.6 N 26 43 14 23 1008.5 1008.3 0.0

Latest Capital City Observations: Canberra | Sydney | Melbourne | Brisbane | Adelaide | Perth | Hobart | Darwin

Other Formats:

Comma delimited format used in spreadsheet applications
http://www.bom.gov.au/fwo/IDV60901/IDV60901.95866.axf

JavaScript Object Notation format (JSON) in row-major order
http://www.bom.gov.au/fwo/IDV60901/IDV60901.95866.json